AIZ1814 LLER-LLBG
Flight info
| Callsign | AIZ1814 |
|---|---|
| Flight time | N/A |
| Altitude | 18000 |
| Route | NURIT J10 TOMAL |
| Aircraft | A21N/M-SDE2E3FGHIRWXY/LB1 |
Departure
| Time | 2026-04-26 11:06 |
|---|---|
| Airport | Ramon International Airport (LLER) |
Arrival
| Time | N/A |
|---|---|
| Airport | Ben Gurion International Airport (LLBG) |
| Time | Latitude | Longitude | Altitude | Speed | Heading |
|---|---|---|---|---|---|
| 2026-04-26 11:03 | 29.73506 | 35.01408 | 304 ft | 18 kts | 13° |
| 2026-04-26 11:04 | 29.73633 | 35.01444 | 304 ft | 18 kts | 14° |
| 2026-04-26 11:04 | 29.73762 | 35.01482 | 304 ft | 19 kts | 14° |
| 2026-04-26 11:04 | 29.73890 | 35.01517 | 305 ft | 19 kts | 13° |
| 2026-04-26 11:04 | 29.74022 | 35.01553 | 305 ft | 19 kts | 14° |
| 2026-04-26 11:05 | 29.74153 | 35.01591 | 305 ft | 19 kts | 14° |
| 2026-04-26 11:05 | 29.74285 | 35.01628 | 305 ft | 19 kts | 21° |
| 2026-04-26 11:05 | 29.74312 | 35.01757 | 306 ft | 18 kts | 104° |
| 2026-04-26 11:05 | 29.74233 | 35.01839 | 306 ft | 17 kts | 189° |
| 2026-04-26 11:06 | 29.74027 | 35.01783 | 306 ft | 64 kts | 193° |
| 2026-04-26 11:06 | 29.73616 | 35.01666 | 306 ft | 116 kts | 193° |
| 2026-04-26 11:06 | 29.72255 | 35.01267 | 607 ft | 171 kts | 194° |
| 2026-04-26 11:06 | 29.71129 | 35.00942 | 1509 ft | 165 kts | 194° |
| 2026-04-26 11:07 | 29.70062 | 35.00658 | 2365 ft | 164 kts | 195° |
| 2026-04-26 11:07 | 29.68991 | 35.00089 | 2968 ft | 178 kts | 225° |
| 2026-04-26 11:07 | 29.68425 | 34.98802 | 3579 ft | 195 kts | 259° |
| 2026-04-26 11:07 | 29.68634 | 34.97258 | 4411 ft | 205 kts | 293° |
| 2026-04-26 11:08 | 29.69589 | 34.96114 | 5403 ft | 205 kts | 328° |
| 2026-04-26 11:08 | 29.71002 | 34.95832 | 6240 ft | 214 kts | 7° |
| 2026-04-26 11:08 | 29.72305 | 34.96642 | 6915 ft | 226 kts | 47° |
| 2026-04-26 11:08 | 29.73219 | 34.98168 | 7534 ft | 242 kts | 58° |
| 2026-04-26 11:09 | 29.74143 | 34.99877 | 8136 ft | 263 kts | 58° |
| 2026-04-26 11:09 | 29.75301 | 35.01594 | 8839 ft | 280 kts | 37° |
| 2026-04-26 11:09 | 29.77043 | 35.02449 | 9928 ft | 277 kts | 8° |
| 2026-04-26 11:09 | 29.79007 | 35.02701 | 10678 ft | 292 kts | 1° |
| 2026-04-26 11:10 | 29.81068 | 35.02856 | 11317 ft | 310 kts | 1° |
| 2026-04-26 11:10 | 29.83293 | 35.03061 | 11939 ft | 330 kts | 3° |
| 2026-04-26 11:10 | 29.85654 | 35.03373 | 12535 ft | 349 kts | 5° |
| 2026-04-26 11:10 | 29.88109 | 35.03735 | 13271 ft | 362 kts | 5° |
| 2026-04-26 11:11 | 29.90627 | 35.04121 | 14166 ft | 368 kts | 4° |
| 2026-04-26 11:11 | 29.93184 | 35.04512 | 15058 ft | 374 kts | 4° |
| 2026-04-26 11:11 | 29.95761 | 35.04904 | 15884 ft | 380 kts | 3° |
| 2026-04-26 11:11 | 29.98420 | 35.05300 | 16716 ft | 386 kts | 2° |
| 2026-04-26 11:12 | 30.01076 | 35.05698 | 17422 ft | 391 kts | 2° |
| 2026-04-26 11:12 | 30.03822 | 35.06108 | 17883 ft | 395 kts | 1° |
| 2026-04-26 11:12 | 30.06548 | 35.06519 | 18036 ft | 398 kts | 2° |
| 2026-04-26 11:12 | 30.09294 | 35.07039 | 18043 ft | 399 kts | 4° |
| 2026-04-26 11:13 | 30.12025 | 35.07602 | 18040 ft | 400 kts | 5° |
| 2026-04-26 11:13 | 30.14777 | 35.08179 | 18019 ft | 399 kts | 5° |
| 2026-04-26 11:13 | 30.17500 | 35.08751 | 18018 ft | 399 kts | 5° |
| 2026-04-26 11:13 | 30.20260 | 35.09327 | 18015 ft | 399 kts | 5° |
| 2026-04-26 11:14 | 30.23009 | 35.09894 | 18020 ft | 399 kts | 5° |
| 2026-04-26 11:14 | 30.25734 | 35.10418 | 18020 ft | 399 kts | 4° |
| 2026-04-26 11:14 | 30.28472 | 35.10926 | 18021 ft | 398 kts | 4° |
| 2026-04-26 11:14 | 30.30321 | 35.11268 | 18019 ft | 397 kts | 4° |
| 2026-04-26 11:15 | 30.33948 | 35.11943 | 18035 ft | 398 kts | 4° |
| 2026-04-26 11:15 | 30.36705 | 35.12472 | 18038 ft | 398 kts | 4° |
| 2026-04-26 11:15 | 30.39443 | 35.13003 | 18028 ft | 399 kts | 4° |
| 2026-04-26 11:15 | 30.42194 | 35.13533 | 18012 ft | 398 kts | 4° |
| 2026-04-26 11:16 | 30.44943 | 35.14065 | 17996 ft | 399 kts | 4° |
| 2026-04-26 11:16 | 30.47675 | 35.14592 | 18022 ft | 398 kts | 4° |
| 2026-04-26 11:16 | 30.50423 | 35.15124 | 18017 ft | 399 kts | 4° |
| 2026-04-26 11:16 | 30.53177 | 35.15664 | 18028 ft | 400 kts | 5° |
| 2026-04-26 11:17 | 30.55894 | 35.16405 | 18028 ft | 403 kts | 11° |
| 2026-04-26 11:17 | 30.58571 | 35.17455 | 18021 ft | 406 kts | 17° |
| 2026-04-26 11:17 | 30.61189 | 35.18703 | 17982 ft | 407 kts | 19° |
| 2026-04-26 11:17 | 30.63789 | 35.19997 | 17999 ft | 407 kts | 19° |
| 2026-04-26 11:18 | 30.66382 | 35.21294 | 17987 ft | 406 kts | 19° |
| 2026-04-26 11:18 | 30.68991 | 35.22592 | 18012 ft | 406 kts | 19° |
| 2026-04-26 11:18 | 30.71605 | 35.23886 | 17970 ft | 407 kts | 19° |
| 2026-04-26 11:18 | 30.74202 | 35.25168 | 17976 ft | 406 kts | 19° |
| 2026-04-26 11:19 | 30.76818 | 35.26456 | 17967 ft | 407 kts | 19° |
| 2026-04-26 11:19 | 30.79415 | 35.27734 | 17992 ft | 407 kts | 19° |
| 2026-04-26 11:19 | 30.82015 | 35.29015 | 17982 ft | 407 kts | 19° |
| 2026-04-26 11:19 | 30.84643 | 35.30309 | 17982 ft | 407 kts | 19° |
| 2026-04-26 11:20 | 30.87240 | 35.31591 | 18002 ft | 406 kts | 19° |
| 2026-04-26 11:20 | 30.88978 | 35.32448 | 18002 ft | 407 kts | 19° |
| 2026-04-26 11:20 | 30.92483 | 35.34132 | 17986 ft | 405 kts | 14° |
| 2026-04-26 11:20 | 30.95219 | 35.34844 | 18003 ft | 399 kts | 2° |
| 2026-04-26 11:21 | 30.97954 | 35.35236 | 17990 ft | 397 kts | 0° |
| 2026-04-26 11:21 | 31.00744 | 35.35588 | 17985 ft | 398 kts | 0° |
| 2026-04-26 11:21 | 31.03478 | 35.35959 | 17988 ft | 397 kts | 1° |
| 2026-04-26 11:21 | 31.06257 | 35.36367 | 18004 ft | 398 kts | 2° |
| 2026-04-26 11:22 | 31.08987 | 35.36793 | 18001 ft | 398 kts | 2° |
| 2026-04-26 11:22 | 31.11745 | 35.37235 | 17983 ft | 398 kts | 2° |
| 2026-04-26 11:22 | 31.14487 | 35.37683 | 17979 ft | 397 kts | 2° |
| 2026-04-26 11:22 | 31.17256 | 35.38141 | 18001 ft | 398 kts | 2° |
| 2026-04-26 11:23 | 31.19983 | 35.38593 | 18003 ft | 398 kts | 2° |
| 2026-04-26 11:23 | 31.22743 | 35.39051 | 18008 ft | 397 kts | 2° |
| 2026-04-26 11:23 | 31.25465 | 35.39503 | 17996 ft | 397 kts | 3° |
| 2026-04-26 11:23 | 31.28197 | 35.39957 | 17989 ft | 397 kts | 2° |
| 2026-04-26 11:24 | 31.30964 | 35.40418 | 18001 ft | 397 kts | 3° |
| 2026-04-26 11:24 | 31.33668 | 35.40868 | 17893 ft | 395 kts | 3° |
| 2026-04-26 11:24 | 31.36413 | 35.41326 | 17199 ft | 398 kts | 3° |
| 2026-04-26 11:24 | 31.39172 | 35.41780 | 16344 ft | 403 kts | 3° |
| 2026-04-26 11:25 | 31.41948 | 35.42240 | 15719 ft | 402 kts | 4° |
| 2026-04-26 11:25 | 31.44692 | 35.42701 | 15141 ft | 398 kts | 4° |
| 2026-04-26 11:25 | 31.47445 | 35.43161 | 14563 ft | 394 kts | 4° |
| 2026-04-26 11:25 | 31.50137 | 35.43610 | 13982 ft | 391 kts | 5° |
| 2026-04-26 11:26 | 31.52849 | 35.44064 | 13430 ft | 388 kts | 5° |
| 2026-04-26 11:26 | 31.55500 | 35.44508 | 12855 ft | 385 kts | 5° |
| 2026-04-26 11:26 | 31.58138 | 35.44952 | 12286 ft | 382 kts | 6° |
| 2026-04-26 11:26 | 31.60776 | 35.45393 | 11713 ft | 379 kts | 6° |
| 2026-04-26 11:27 | 31.63362 | 35.45899 | 11205 ft | 374 kts | 9° |
| 2026-04-26 11:27 | 31.65914 | 35.46487 | 10794 ft | 367 kts | 9° |
| 2026-04-26 11:27 | 31.68387 | 35.47076 | 10455 ft | 359 kts | 10° |
| 2026-04-26 11:27 | 31.70802 | 35.47655 | 10143 ft | 350 kts | 10° |
| 2026-04-26 11:28 | 31.73158 | 35.48233 | 9957 ft | 336 kts | 11° |
| 2026-04-26 11:28 | 31.75412 | 35.48721 | 9701 ft | 326 kts | 2° |
| 2026-04-26 11:28 | 31.77643 | 35.48402 | 9415 ft | 312 kts | 338° |
| 2026-04-26 11:28 | 31.79449 | 35.47144 | 9082 ft | 300 kts | 314° |
| 2026-04-26 11:29 | 31.80855 | 35.45356 | 8758 ft | 293 kts | 306° |
| 2026-04-26 11:29 | 31.82127 | 35.43539 | 8420 ft | 290 kts | 305° |
| 2026-04-26 11:29 | 31.83398 | 35.41686 | 8062 ft | 287 kts | 305° |
| 2026-04-26 11:29 | 31.84635 | 35.39873 | 7691 ft | 285 kts | 305° |
| 2026-04-26 11:30 | 31.85869 | 35.38056 | 7336 ft | 283 kts | 305° |
| 2026-04-26 11:30 | 31.86688 | 35.36840 | 7086 ft | 281 kts | 305° |
| 2026-04-26 11:30 | 31.88287 | 35.34459 | 6743 ft | 273 kts | 305° |
| 2026-04-26 11:30 | 31.89448 | 35.32728 | 6517 ft | 266 kts | 305° |
| 2026-04-26 11:31 | 31.90516 | 35.31007 | 6312 ft | 258 kts | 298° |
| 2026-04-26 11:31 | 31.91397 | 35.29201 | 6075 ft | 251 kts | 295° |
| 2026-04-26 11:31 | 31.92153 | 35.27373 | 5851 ft | 244 kts | 291° |
| 2026-04-26 11:31 | 31.92816 | 35.25587 | 5826 ft | 228 kts | 290° |
| 2026-04-26 11:32 | 31.93441 | 35.23893 | 5822 ft | 233 kts | 290° |
| 2026-04-26 11:32 | 31.94098 | 35.22095 | 5827 ft | 240 kts | 290° |
| 2026-04-26 11:32 | 31.94625 | 35.20214 | 5656 ft | 239 kts | 271° |
| 2026-04-26 11:32 | 31.94256 | 35.18364 | 5286 ft | 232 kts | 240° |
| 2026-04-26 11:33 | 31.93420 | 35.16755 | 4924 ft | 232 kts | 236° |
| 2026-04-26 11:33 | 31.92555 | 35.15141 | 4562 ft | 233 kts | 237° |
| 2026-04-26 11:33 | 31.91730 | 35.13487 | 4212 ft | 232 kts | 239° |
| 2026-04-26 11:33 | 31.90960 | 35.11847 | 3956 ft | 227 kts | 241° |
| 2026-04-26 11:34 | 31.90229 | 35.10212 | 3719 ft | 223 kts | 245° |
| 2026-04-26 11:34 | 31.89982 | 35.08446 | 3448 ft | 222 kts | 281° |
| 2026-04-26 11:34 | 31.90641 | 35.06860 | 3269 ft | 217 kts | 302° |
| 2026-04-26 11:34 | 31.91521 | 35.05436 | 3183 ft | 206 kts | 303° |
| 2026-04-26 11:35 | 31.92308 | 35.04110 | 3120 ft | 192 kts | 301° |
| 2026-04-26 11:35 | 31.93027 | 35.02797 | 2890 ft | 187 kts | 299° |
| 2026-04-26 11:35 | 31.93701 | 35.01508 | 2608 ft | 184 kts | 298° |
| 2026-04-26 11:35 | 31.94142 | 35.00657 | 2447 ft | 177 kts | 298° |
| 2026-04-26 11:36 | 31.94940 | 34.99117 | 2107 ft | 155 kts | 298° |
| 2026-04-26 11:36 | 31.95484 | 34.98072 | 1867 ft | 141 kts | 297° |
| 2026-04-26 11:36 | 31.95973 | 34.97133 | 1658 ft | 127 kts | 297° |
| 2026-04-26 11:36 | 31.96430 | 34.96252 | 1496 ft | 126 kts | 296° |
| 2026-04-26 11:37 | 31.96893 | 34.95356 | 1356 ft | 131 kts | 296° |
| 2026-04-26 11:37 | 31.97372 | 34.94425 | 1239 ft | 133 kts | 297° |
| 2026-04-26 11:37 | 31.97848 | 34.93510 | 1047 ft | 132 kts | 298° |
| 2026-04-26 11:37 | 31.98350 | 34.92602 | 800 ft | 133 kts | 297° |
| 2026-04-26 11:38 | 31.98822 | 34.91675 | 666 ft | 131 kts | 297° |
| 2026-04-26 11:38 | 31.99304 | 34.90752 | 434 ft | 131 kts | 297° |
| 2026-04-26 11:38 | 31.99785 | 34.89823 | 251 ft | 131 kts | 297° |
| 2026-04-26 11:38 | 32.00260 | 34.88912 | 177 ft | 131 kts | 298° |
| 2026-04-26 11:39 | 32.00801 | 34.87918 | 691 ft | 157 kts | 298° |
| 2026-04-26 11:39 | 32.01388 | 34.86821 | 1521 ft | 163 kts | 296° |
| 2026-04-26 11:39 | 32.01619 | 34.85597 | 2448 ft | 161 kts | 269° |
| 2026-04-26 11:39 | 32.01731 | 34.84224 | 3143 ft | 178 kts | 283° |
| 2026-04-26 11:40 | 32.02196 | 34.82831 | 3653 ft | 198 kts | 291° |
| 2026-04-26 11:40 | 32.02806 | 34.81302 | 3950 ft | 213 kts | 296° |
| 2026-04-26 11:40 | 32.03915 | 34.80099 | 3967 ft | 222 kts | 334° |
| 2026-04-26 11:40 | 32.05437 | 34.79865 | 3900 ft | 226 kts | 8° |
| 2026-04-26 11:41 | 32.06860 | 34.80662 | 3919 ft | 227 kts | 37° |
| 2026-04-26 11:42 | 32.08209 | 34.91010 | 3990 ft | 219 kts | 126° |
| 2026-04-26 11:43 | 32.07378 | 34.92504 | 3992 ft | 219 kts | 126° |
| 2026-04-26 11:43 | 32.06553 | 34.94024 | 3992 ft | 219 kts | 125° |
| 2026-04-26 11:43 | 32.05744 | 34.95544 | 3993 ft | 219 kts | 124° |
| 2026-04-26 11:43 | 32.04932 | 34.97085 | 3996 ft | 219 kts | 124° |
| 2026-04-26 11:44 | 32.04136 | 34.98606 | 3993 ft | 219 kts | 124° |
| 2026-04-26 11:44 | 32.03330 | 35.00151 | 3924 ft | 219 kts | 124° |
| 2026-04-26 11:44 | 32.02498 | 35.01635 | 3852 ft | 218 kts | 131° |
| 2026-04-26 11:44 | 32.01505 | 35.02985 | 3766 ft | 217 kts | 135° |
| 2026-04-26 11:45 | 32.00474 | 35.04295 | 3648 ft | 217 kts | 137° |
| 2026-04-26 11:45 | 31.99345 | 35.05478 | 3529 ft | 216 kts | 144° |
| 2026-04-26 11:45 | 31.98089 | 35.06404 | 3409 ft | 212 kts | 160° |
| 2026-04-26 11:45 | 31.96699 | 35.07016 | 3288 ft | 211 kts | 164° |
| 2026-04-26 11:46 | 31.95284 | 35.07543 | 3228 ft | 211 kts | 171° |
| 2026-04-26 11:46 | 31.93898 | 35.07523 | 3282 ft | 190 kts | 196° |
| 2026-04-26 11:46 | 31.92884 | 35.06705 | 3234 ft | 168 kts | 237° |
| 2026-04-26 11:46 | 31.92655 | 35.05450 | 3190 ft | 153 kts | 272° |
| 2026-04-26 11:47 | 31.92820 | 35.04221 | 3052 ft | 152 kts | 281° |
| 2026-04-26 11:47 | 31.93150 | 35.02984 | 2891 ft | 161 kts | 289° |
| 2026-04-26 11:47 | 31.93618 | 35.01788 | 2661 ft | 162 kts | 294° |
| 2026-04-26 11:47 | 31.94169 | 35.00616 | 2419 ft | 162 kts | 297° |
| 2026-04-26 11:48 | 31.94742 | 34.99486 | 2191 ft | 160 kts | 298° |
| 2026-04-26 11:48 | 31.95325 | 34.98367 | 1965 ft | 158 kts | 298° |
| 2026-04-26 11:48 | 31.95879 | 34.97309 | 1732 ft | 150 kts | 298° |
| 2026-04-26 11:48 | 31.96419 | 34.96275 | 1525 ft | 142 kts | 297° |
| 2026-04-26 11:49 | 31.96916 | 34.95320 | 1327 ft | 132 kts | 297° |
| 2026-04-26 11:49 | 31.97394 | 34.94399 | 1168 ft | 131 kts | 297° |
| 2026-04-26 11:49 | 31.97867 | 34.93492 | 994 ft | 130 kts | 297° |
| 2026-04-26 11:49 | 31.98342 | 34.92582 | 815 ft | 130 kts | 298° |
| 2026-04-26 11:50 | 31.98823 | 34.91672 | 624 ft | 132 kts | 297° |
| 2026-04-26 11:50 | 31.99302 | 34.90748 | 454 ft | 132 kts | 296° |
| 2026-04-26 11:50 | 31.99789 | 34.89822 | 259 ft | 133 kts | 296° |
| 2026-04-26 11:50 | 32.00264 | 34.88908 | 150 ft | 124 kts | 297° |